createdAt,value
2023-02-27T00:01:31.417Z,7.25
2023-02-27T00:04:02.498Z,8.08
2023-02-27T00:06:33.613Z,6.12
2023-02-27T00:09:04.585Z,8.48
2023-02-27T00:11:35.056Z,6.15
2023-02-27T00:14:05.702Z,9.83
2023-02-27T00:16:36.160Z,6.65
2023-02-27T00:19:06.621Z,6.85
2023-02-27T00:21:38.090Z,6.30
2023-02-27T00:24:08.992Z,8.18
2023-02-27T00:26:39.460Z,5.92
2023-02-27T00:29:09.939Z,7.10
2023-02-27T00:31:40.492Z,7.40
2023-02-27T00:34:10.997Z,4.90
2023-02-27T00:36:41.420Z,8.28
2023-02-27T00:39:12.038Z,5.55
2023-02-27T00:41:42.468Z,6.53
2023-02-27T00:44:12.949Z,8.75
2023-02-27T00:46:43.430Z,7.67
2023-02-27T00:49:13.918Z,7.15
2023-02-27T00:51:44.394Z,9.08
2023-02-27T00:54:14.961Z,11.40
2023-02-27T00:56:45.494Z,8.50
2023-02-27T00:59:17.103Z,8.30
2023-02-27T01:01:48.660Z,8.03
2023-02-27T01:04:20.233Z,8.00
2023-02-27T01:06:51.805Z,6.15
2023-02-27T01:09:22.400Z,6.80
2023-02-27T01:11:53.567Z,7.40
2023-02-27T01:14:24.004Z,6.75
2023-02-27T01:16:54.509Z,6.22
2023-02-27T01:19:25.393Z,6.05
2023-02-27T01:21:55.860Z,5.72
2023-02-27T01:24:26.840Z,6.08
2023-02-27T01:26:57.295Z,5.75
2023-02-27T01:29:27.807Z,7.92
2023-02-27T01:31:58.307Z,6.33
2023-02-27T01:34:28.789Z,6.15
2023-02-27T01:36:59.271Z,5.30
2023-02-27T01:39:29.737Z,5.42
2023-02-27T01:42:00.461Z,6.80
2023-02-27T01:44:32.615Z,6.25
2023-02-27T01:47:03.185Z,7.08
2023-02-27T01:49:35.833Z,6.47
2023-02-27T01:52:09.502Z,6.22
2023-02-27T01:54:42.736Z,8.33
2023-02-27T01:57:13.372Z,8.98
2023-02-27T01:59:44.450Z,9.23
2023-02-27T02:02:17.855Z,7.08
2023-02-27T02:04:49.446Z,7.05
2023-02-27T02:07:22.084Z,4.87
2023-02-27T02:09:56.488Z,6.25
2023-02-27T02:12:29.846Z,8.63
2023-02-27T02:15:00.542Z,6.22
2023-02-27T02:17:45.660Z,6.72
2023-02-27T02:20:21.641Z,7.90
2023-02-27T02:22:57.854Z,4.95
2023-02-27T02:25:42.901Z,5.70
2023-02-27T02:28:18.703Z,4.85
2023-02-27T02:31:06.871Z,6.50
2023-02-27T02:34:02.373Z,4.65
2023-02-27T02:36:55.253Z,6.20
2023-02-27T02:39:44.455Z,5.30
2023-02-27T02:42:44.198Z,5.85
2023-02-27T02:45:22.093Z,4.65
2023-02-27T02:47:56.995Z,5.53
2023-02-27T02:50:44.957Z,4.90
2023-02-27T02:56:23.358Z,4.85
2023-02-27T02:58:59.175Z,6.55
2023-02-27T03:01:32.812Z,5.53
2023-02-27T03:04:11.875Z,5.62
2023-02-27T03:06:50.098Z,6.60
2023-02-27T03:09:27.269Z,6.60
2023-02-27T03:12:00.328Z,7.47
2023-02-27T03:14:35.987Z,6.42
2023-02-27T03:17:20.152Z,6.75
2023-02-27T03:20:02.996Z,5.40
2023-02-27T03:22:37.510Z,5.15
2023-02-27T03:25:11.743Z,6.55
2023-02-27T03:27:55.165Z,6.62
2023-02-27T03:30:38.900Z,6.22
2023-02-27T03:33:22.938Z,5.55
2023-02-27T03:36:14.218Z,6.17
2023-02-27T03:38:55.042Z,6.75
2023-02-27T03:41:39.550Z,6.92
2023-02-27T03:44:29.594Z,6.35
2023-02-27T03:47:03.557Z,5.72
2023-02-27T03:49:35.639Z,5.17
2023-02-27T03:52:07.932Z,5.25
2023-02-27T03:55:05.204Z,5.62
2023-02-27T03:57:38.024Z,5.58
2023-02-27T04:00:21.921Z,4.45
2023-02-27T04:02:55.831Z,5.25
2023-02-27T04:05:29.612Z,5.33
2023-02-27T04:08:33.767Z,5.25
2023-02-27T04:11:20.273Z,5.45
2023-02-27T04:14:16.459Z,5.50
2023-02-27T04:17:18.627Z,3.87
2023-02-27T04:20:08.007Z,4.92
2023-02-27T04:22:42.885Z,5.10
2023-02-27T04:25:48.372Z,5.50
2023-02-27T04:28:30.392Z,5.20
2023-02-27T04:31:22.724Z,5.65
2023-02-27T04:34:04.425Z,4.55
2023-02-27T04:36:41.627Z,5.42
2023-02-27T04:39:25.514Z,5.80
2023-02-27T04:42:02.124Z,6.22
2023-02-27T04:44:41.390Z,11.60
2023-02-27T04:47:17.935Z,13.28
2023-02-27T04:49:59.356Z,14.87
2023-02-27T04:52:35.039Z,15.45
2023-02-27T05:00:50.527Z,12.18
2023-02-27T05:03:26.936Z,10.00
2023-02-27T05:06:00.910Z,8.55
2023-02-27T05:08:50.219Z,7.28
2023-02-27T05:11:24.918Z,8.48
2023-02-27T05:13:58.522Z,9.15
2023-02-27T05:16:35.718Z,15.57
2023-02-27T05:19:07.508Z,17.12
2023-02-27T05:21:42.010Z,14.93
2023-02-27T05:24:23.831Z,10.72
2023-02-27T05:27:12.963Z,11.40
2023-02-27T05:29:49.338Z,12.00
2023-02-27T05:32:34.337Z,14.75
2023-02-27T05:35:19.801Z,14.65
2023-02-27T05:37:53.449Z,14.73
2023-02-27T05:40:26.887Z,18.90
2023-02-27T05:45:42.369Z,16.60
2023-02-27T05:48:21.743Z,15.43
2023-02-27T05:50:55.779Z,15.50
2023-02-27T05:53:29.260Z,16.82
2023-02-27T05:58:33.431Z,15.18
2023-02-27T06:01:07.154Z,11.53
2023-02-27T06:03:39.520Z,9.13
2023-02-27T06:06:12.642Z,10.00
2023-02-27T06:08:43.437Z,10.65
2023-02-27T06:11:14.438Z,8.48
2023-02-27T06:13:44.925Z,7.10
2023-02-27T06:16:17.177Z,7.97
2023-02-27T06:18:47.676Z,7.58
2023-02-27T06:21:18.172Z,7.35
2023-02-27T06:23:48.761Z,5.72
2023-02-27T06:26:19.199Z,5.83
2023-02-27T06:28:49.653Z,7.55
2023-02-27T06:31:20.217Z,5.67
2023-02-27T06:33:50.837Z,6.97
2023-02-27T06:36:21.316Z,5.17
2023-02-27T06:38:51.788Z,5.12
2023-02-27T06:41:23.708Z,5.97
2023-02-27T06:43:55.838Z,6.92
2023-02-27T06:46:27.881Z,7.12
2023-02-27T06:48:58.663Z,7.37
2023-02-27T06:51:30.369Z,7.08
2023-02-27T06:54:00.870Z,7.62
2023-02-27T06:56:31.309Z,6.60
2023-02-27T06:59:01.833Z,8.00
2023-02-27T07:01:32.453Z,7.53
2023-02-27T07:04:02.961Z,7.25
2023-02-27T07:07:33.940Z,7.83
2023-02-27T07:09:06.710Z,8.28
2023-02-27T07:11:37.680Z,7.90
2023-02-27T07:14:09.778Z,7.53
2023-02-27T07:16:40.869Z,6.97
2023-02-27T07:19:12.181Z,7.92
2023-02-27T07:21:42.634Z,9.80
2023-02-27T07:24:13.290Z,10.53
2023-02-27T07:26:43.801Z,7.30
2023-02-27T07:29:15.112Z,7.67
2023-02-27T07:31:45.679Z,14.98
2023-02-27T07:34:16.378Z,13.30
2023-02-27T07:36:46.957Z,10.80
2023-02-27T07:39:17.535Z,12.28
2023-02-27T07:41:48.115Z,11.33
2023-02-27T07:44:18.686Z,7.70
2023-02-27T07:46:49.199Z,5.95
2023-02-27T07:49:19.725Z,6.62
2023-02-27T07:51:50.188Z,7.42
2023-02-27T07:54:20.752Z,9.58
2023-02-27T07:56:51.318Z,7.08
2023-02-27T07:59:21.823Z,14.90
2023-02-27T08:01:52.764Z,11.50
2023-02-27T08:04:23.773Z,10.38
2023-02-27T08:06:54.280Z,8.55
2023-02-27T08:09:26.193Z,7.12
2023-02-27T08:11:56.700Z,10.93
2023-02-27T08:14:27.374Z,9.73
2023-02-27T08:16:57.824Z,6.85
2023-02-27T08:19:28.347Z,7.70
2023-02-27T08:22:00.116Z,7.33
2023-02-27T08:24:30.748Z,7.40
2023-02-27T08:27:01.243Z,6.95
2023-02-27T08:29:33.328Z,6.10
2023-02-27T08:32:05.075Z,6.62
2023-02-27T08:34:35.584Z,6.80
2023-02-27T08:37:06.064Z,11.30
2023-02-27T08:39:36.641Z,8.55
2023-02-27T08:42:07.629Z,7.65
2023-02-27T08:44:38.291Z,6.55
2023-02-27T08:47:08.727Z,7.35
2023-02-27T08:49:39.204Z,7.58
2023-02-27T08:52:10.079Z,8.60
2023-02-27T08:54:40.642Z,6.47
2023-02-27T08:57:11.091Z,5.95
2023-02-27T08:59:41.627Z,9.53
2023-02-27T09:02:12.544Z,9.45
2023-02-27T09:04:43.026Z,8.33
2023-02-27T09:07:13.473Z,7.05
2023-02-27T09:09:45.384Z,8.08
2023-02-27T09:12:15.841Z,7.15
2023-02-27T09:14:46.306Z,7.28
2023-02-27T09:17:16.782Z,6.28
2023-02-27T09:19:48.337Z,7.40
2023-02-27T09:22:20.009Z,6.92
2023-02-27T09:24:50.452Z,7.72
2023-02-27T09:27:20.922Z,7.83
2023-02-27T09:29:56.544Z,7.90
2023-02-27T09:32:28.555Z,6.75
2023-02-27T09:34:59.208Z,8.28
2023-02-27T09:37:29.693Z,7.45
2023-02-27T09:40:00.145Z,6.87
2023-02-27T09:42:33.526Z,7.85
2023-02-27T09:45:06.950Z,6.80
2023-02-27T09:47:40.324Z,7.97
2023-02-27T09:50:34.234Z,10.40
2023-02-27T09:53:06.432Z,5.92
2023-02-27T09:55:40.230Z,4.95
2023-02-27T09:58:35.716Z,5.72
2023-02-27T10:01:09.057Z,5.83
2023-02-27T10:03:51.147Z,7.30
2023-02-27T10:06:31.243Z,5.87
2023-02-27T10:09:22.845Z,6.83
2023-02-27T10:12:20.153Z,6.58
2023-02-27T10:14:53.517Z,10.30
2023-02-27T10:17:30.621Z,10.00
2023-02-27T10:20:04.708Z,9.33
2023-02-27T10:22:42.128Z,9.18
2023-02-27T10:25:30.880Z,7.90
2023-02-27T10:27:53.256Z,10.35
2023-02-27T10:30:32.900Z,8.15
2023-02-27T10:33:28.810Z,5.80
2023-02-27T10:36:01.317Z,5.87
2023-02-27T10:38:40.177Z,4.83
2023-02-27T10:41:13.858Z,5.33
2023-02-27T10:43:44.655Z,5.78
2023-02-27T10:46:18.287Z,5.20
2023-02-27T10:48:49.004Z,4.50
2023-02-27T10:51:28.964Z,4.67
2023-02-27T10:54:18.863Z,3.10
2023-02-27T10:57:00.942Z,3.00
2023-02-27T10:59:37.162Z,3.02
2023-02-27T11:02:10.157Z,1.90
2023-02-27T11:04:43.782Z,2.42
2023-02-27T11:07:17.831Z,3.37
2023-02-27T11:09:51.196Z,2.52
2023-02-27T11:12:30.560Z,1.37
2023-02-27T11:15:07.039Z,1.32
2023-02-27T11:17:38.658Z,2.25
2023-02-27T11:20:27.215Z,5.30
2023-02-27T11:23:09.488Z,3.17
2023-02-27T11:25:40.338Z,2.50
2023-02-27T11:28:25.895Z,4.72
2023-02-27T11:31:00.402Z,3.60
2023-02-27T11:33:39.432Z,5.00
2023-02-27T11:36:11.271Z,4.28
2023-02-27T11:38:41.786Z,4.40
2023-02-27T11:41:12.951Z,5.62
2023-02-27T11:43:55.574Z,4.60
2023-02-27T11:46:46.838Z,5.60
2023-02-27T11:49:02.021Z,6.37
2023-02-27T11:52:05.708Z,5.90
2023-02-27T11:54:39.043Z,5.33
2023-02-27T11:57:16.068Z,5.25
2023-02-27T11:59:52.965Z,4.17
2023-02-27T12:02:32.192Z,6.12
2023-02-27T12:05:06.807Z,4.45
2023-02-27T12:07:40.233Z,3.12
2023-02-27T12:10:19.444Z,2.15
2023-02-27T12:13:44.991Z,2.42
2023-02-27T12:16:54.313Z,3.02
2023-02-27T12:19:47.078Z,3.50
2023-02-27T12:22:38.767Z,2.77
2023-02-27T12:25:40.372Z,3.80
2023-02-27T12:28:39.393Z,3.47
2023-02-27T12:31:27.807Z,2.67
2023-02-27T12:34:16.216Z,2.67
2023-02-27T12:36:48.897Z,3.42
2023-02-27T12:39:24.873Z,2.60
2023-02-27T12:42:19.032Z,3.05
2023-02-27T12:45:17.840Z,3.85
2023-02-27T12:48:15.445Z,2.67
2023-02-27T12:51:00.780Z,3.02
2023-02-27T12:53:45.900Z,6.20
2023-02-27T12:56:21.839Z,2.05
2023-02-27T12:59:16.198Z,4.60
2023-02-27T13:02:10.503Z,6.83
2023-02-27T13:05:07.289Z,4.87
2023-02-27T13:07:58.620Z,2.62
2023-02-27T13:10:44.152Z,4.12
2023-02-27T13:13:29.493Z,3.77
2023-02-27T13:16:19.204Z,2.50
2023-02-27T13:19:07.246Z,2.80
2023-02-27T13:21:49.318Z,2.87
2023-02-27T13:24:31.188Z,3.50
2023-02-27T13:27:10.345Z,5.15
2023-02-27T13:29:45.789Z,3.77
2023-02-27T13:35:09.692Z,2.10
2023-02-27T13:38:05.595Z,2.75
2023-02-27T13:40:42.177Z,3.27
2023-02-27T13:43:30.392Z,3.20
2023-02-27T13:46:03.436Z,4.58
2023-02-27T13:48:42.297Z,2.42
2023-02-27T13:51:32.842Z,3.15
2023-02-27T13:54:20.588Z,2.98
2023-02-27T13:57:00.055Z,3.55
2023-02-27T13:59:39.825Z,4.42
2023-02-27T14:02:18.519Z,3.50
2023-02-27T14:04:51.816Z,3.95
2023-02-27T14:07:27.742Z,3.72
2023-02-27T14:10:13.299Z,4.08
2023-02-27T14:12:46.669Z,4.62
2023-02-27T14:15:26.428Z,3.98
2023-02-27T14:18:11.408Z,6.05
2023-02-27T14:20:33.416Z,4.62
2023-02-27T14:23:27.470Z,6.03
2023-02-27T14:26:00.898Z,7.53
2023-02-27T14:28:53.622Z,4.08
2023-02-27T14:31:27.309Z,4.47
2023-02-27T14:34:00.627Z,4.95
2023-02-27T14:36:34.950Z,4.40
2023-02-27T14:39:05.641Z,4.22
2023-02-27T14:41:53.966Z,4.67
2023-02-27T14:44:28.030Z,5.78
2023-02-27T14:46:59.898Z,4.83
2023-02-27T14:49:33.199Z,5.12
2023-02-27T14:52:15.120Z,4.62
2023-02-27T14:54:45.497Z,5.08
2023-02-27T14:57:21.745Z,4.58
2023-02-27T14:59:54.211Z,4.97
2023-02-27T15:02:30.604Z,3.42
2023-02-27T15:05:06.733Z,4.85
2023-02-27T15:07:37.425Z,4.08
2023-02-27T15:10:10.744Z,3.80
2023-02-27T15:12:41.528Z,4.30
2023-02-27T15:15:17.553Z,3.70
2023-02-27T15:17:48.737Z,4.17
2023-02-27T15:20:36.969Z,3.70
2023-02-27T15:23:28.676Z,3.90
2023-02-27T15:26:00.573Z,3.70
2023-02-27T15:28:33.865Z,5.05
2023-02-27T15:31:04.351Z,3.62
2023-02-27T15:33:35.312Z,5.08
2023-02-27T15:36:06.327Z,5.42
2023-02-27T15:38:39.170Z,4.87
2023-02-27T15:41:12.796Z,4.47
2023-02-27T15:43:43.578Z,11.65
2023-02-27T15:46:13.999Z,4.72
2023-02-27T15:48:44.405Z,6.00
2023-02-27T15:51:14.791Z,4.78
2023-02-27T15:53:50.868Z,8.88
2023-02-27T15:56:24.165Z,7.75
2023-02-27T15:59:00.569Z,7.05
2023-02-27T16:01:35.348Z,6.33
2023-02-27T16:04:08.908Z,5.50
2023-02-27T16:06:44.130Z,4.37
2023-02-27T16:09:38.549Z,5.72
2023-02-27T16:12:32.625Z,7.63
2023-02-27T16:15:20.098Z,6.45
2023-02-27T16:18:06.843Z,7.55
2023-02-27T16:20:55.175Z,9.10
2023-02-27T16:23:32.184Z,7.95
2023-02-27T16:26:21.095Z,8.03
2023-02-27T16:28:55.276Z,8.10
2023-02-27T16:31:28.593Z,10.93
2023-02-27T16:34:01.948Z,9.60
2023-02-27T16:36:34.097Z,9.03
2023-02-27T16:39:06.288Z,9.08
2023-02-27T16:41:37.093Z,10.38
2023-02-27T16:44:07.524Z,7.42
2023-02-27T16:46:37.910Z,8.78
2023-02-27T16:49:19.547Z,8.25
2023-02-27T16:51:41.935Z,7.17
2023-02-27T16:54:13.853Z,9.65
2023-02-27T16:56:46.513Z,9.95
2023-02-27T16:59:37.556Z,10.82
2023-02-27T17:02:11.079Z,11.57
2023-02-27T17:04:43.562Z,11.60
2023-02-27T17:07:17.119Z,10.63
2023-02-27T17:09:55.009Z,8.65
2023-02-27T17:12:25.538Z,8.65
2023-02-27T17:14:56.447Z,7.25
2023-02-27T17:17:26.859Z,8.60
2023-02-27T17:19:57.363Z,9.43
2023-02-27T17:22:27.759Z,10.08
2023-02-27T17:24:58.165Z,9.45
2023-02-27T17:27:28.562Z,11.38
2023-02-27T17:29:59.068Z,10.68
2023-02-27T17:32:30.544Z,11.50
2023-02-27T17:35:01.059Z,11.22
2023-02-27T17:37:31.461Z,13.22
2023-02-27T17:40:03.469Z,15.03
2023-02-27T17:42:35.596Z,15.93
2023-02-27T17:45:06.616Z,14.70
2023-02-27T17:47:37.612Z,17.90
2023-02-27T17:50:08.688Z,17.45
2023-02-27T17:52:39.360Z,17.90
2023-02-27T17:55:10.612Z,20.62
2023-02-27T17:57:41.416Z,18.50
2023-02-27T18:00:17.039Z,18.52
2023-02-27T18:02:48.246Z,21.87
2023-02-27T18:05:18.905Z,21.07
2023-02-27T18:07:49.390Z,19.00
2023-02-27T18:10:19.797Z,17.65
2023-02-27T18:12:50.280Z,16.23
2023-02-27T18:15:20.678Z,18.35
2023-02-27T18:17:51.661Z,16.97
2023-02-27T18:20:22.153Z,17.50
2023-02-27T18:22:52.573Z,18.77
2023-02-27T18:25:23.654Z,16.10
2023-02-27T18:27:56.115Z,18.15
2023-02-27T18:30:28.903Z,19.55
2023-02-27T18:33:00.323Z,23.95
2023-02-27T18:35:30.736Z,23.32
2023-02-27T18:38:03.390Z,22.80
2023-02-27T18:40:34.295Z,23.32
2023-02-27T18:43:05.109Z,21.82
2023-02-27T18:45:35.995Z,21.97
2023-02-27T18:48:06.702Z,21.57
2023-02-27T18:50:37.255Z,23.40
2023-02-27T18:53:07.698Z,24.80
2023-02-27T18:55:38.102Z,27.80
2023-02-27T18:58:08.505Z,24.92
2023-02-27T19:00:38.950Z,23.83
2023-02-27T19:03:09.578Z,28.47
2023-02-27T19:05:43.156Z,24.20
2023-02-27T19:08:13.927Z,23.95
2023-02-27T19:10:44.426Z,24.47
2023-02-27T19:13:14.859Z,25.77
2023-02-27T19:15:45.302Z,24.63
2023-02-27T19:18:15.816Z,28.85
2023-02-27T19:20:46.420Z,25.25
2023-02-27T19:23:16.926Z,25.70
2023-02-27T19:25:49.132Z,25.10
2023-02-27T19:28:19.561Z,24.75
2023-02-27T19:30:50.050Z,23.32
2023-02-27T19:33:20.609Z,24.18
2023-02-27T19:35:51.367Z,18.42
2023-02-27T19:38:21.792Z,19.10
2023-02-27T19:40:52.171Z,23.40
2023-02-27T19:43:22.578Z,25.95
2023-02-27T19:45:52.970Z,25.82
2023-02-27T19:48:23.359Z,25.52
2023-02-27T19:50:53.959Z,21.90
2023-02-27T19:53:25.933Z,22.55
2023-02-27T19:56:00.922Z,18.92
2023-02-27T19:58:33.646Z,22.37
2023-02-27T20:01:05.313Z,20.43
2023-02-27T20:03:36.955Z,21.40
2023-02-27T20:06:09.998Z,21.10
2023-02-27T20:08:40.459Z,23.70
2023-02-27T20:11:10.844Z,25.88
2023-02-27T20:13:41.771Z,27.48
2023-02-27T20:16:14.938Z,27.00
2023-02-27T20:18:46.065Z,22.00
2023-02-27T20:21:22.897Z,22.95
2023-02-27T20:23:53.857Z,25.02
2023-02-27T20:26:36.367Z,23.60
2023-02-27T20:29:09.876Z,23.15
2023-02-27T20:31:43.117Z,25.62
2023-02-27T20:34:15.997Z,26.60
2023-02-27T20:36:46.378Z,26.23
2023-02-27T20:39:16.958Z,24.05
2023-02-27T20:41:47.928Z,25.60
2023-02-27T20:44:18.877Z,26.52
2023-02-27T20:46:49.794Z,24.67
2023-02-27T20:49:20.982Z,26.02
2023-02-27T20:51:51.577Z,26.42
2023-02-27T20:54:22.172Z,28.20
2023-02-27T20:56:54.639Z,29.80
2023-02-27T20:59:26.063Z,31.20
2023-02-27T21:01:57.212Z,30.52
2023-02-27T21:04:32.339Z,29.67
2023-02-27T21:09:33.106Z,31.80
2023-02-27T21:12:03.689Z,29.60
2023-02-27T21:14:35.097Z,28.57
2023-02-27T21:17:06.042Z,25.57
2023-02-27T21:19:36.997Z,25.70
2023-02-27T21:22:09.458Z,25.00
2023-02-27T21:24:40.118Z,20.50
2023-02-27T21:27:10.706Z,19.95
2023-02-27T21:29:41.364Z,19.12
2023-02-27T21:32:11.988Z,15.45
2023-02-27T21:34:42.573Z,17.23
2023-02-27T21:37:13.117Z,17.45
2023-02-27T21:39:45.554Z,16.37
2023-02-27T21:42:16.124Z,14.25
2023-02-27T21:44:47.822Z,17.35
2023-02-27T21:47:19.172Z,20.00
2023-02-27T21:49:49.788Z,20.02
2023-02-27T21:52:21.396Z,18.92
2023-02-27T21:54:52.140Z,18.85
2023-02-27T21:57:23.175Z,19.95
2023-02-27T21:59:54.900Z,21.00
2023-02-27T22:02:26.633Z,20.72
2023-02-27T22:04:57.411Z,19.30
2023-02-27T22:07:28.009Z,20.15
2023-02-27T22:09:58.602Z,20.88
2023-02-27T22:12:29.204Z,20.43
2023-02-27T22:14:59.943Z,18.30
2023-02-27T22:17:30.523Z,20.65
2023-02-27T22:20:02.162Z,21.10
2023-02-27T22:22:32.948Z,21.93
2023-02-27T22:25:03.546Z,21.93
2023-02-27T22:27:34.183Z,23.10
2023-02-27T22:30:04.859Z,20.88
2023-02-27T22:32:35.411Z,21.45
2023-02-27T22:35:06.390Z,31.55
2023-02-27T22:37:36.926Z,25.15
2023-02-27T22:40:08.367Z,22.85
2023-02-27T22:42:38.935Z,24.27
2023-02-27T22:45:10.152Z,24.30
2023-02-27T22:47:40.814Z,20.90
2023-02-27T22:50:13.210Z,22.13
2023-02-27T22:52:43.760Z,20.43
2023-02-27T22:55:14.477Z,20.85
2023-02-27T22:57:47.767Z,21.62
2023-02-27T23:00:18.423Z,20.45
2023-02-27T23:02:48.953Z,20.25
2023-02-27T23:05:19.558Z,20.80
2023-02-27T23:07:50.116Z,21.07
2023-02-27T23:10:20.864Z,19.95
2023-02-27T23:12:51.538Z,21.40
2023-02-27T23:15:22.260Z,18.82
2023-02-27T23:17:58.315Z,20.43
2023-02-27T23:20:25.186Z,21.42
2023-02-27T23:22:55.742Z,22.73
2023-02-27T23:25:26.349Z,19.98
2023-02-27T23:27:56.878Z,22.25
2023-02-27T23:30:27.481Z,21.05
2023-02-27T23:32:59.021Z,23.07
2023-02-27T23:35:30.518Z,23.47
2023-02-27T23:38:01.073Z,23.27
2023-02-27T23:40:31.810Z,23.73
2023-02-27T23:43:03.449Z,22.30
2023-02-27T23:45:44.794Z,25.15
2023-02-27T23:48:21.558Z,23.85
2023-02-27T23:50:53.923Z,21.10
2023-02-27T23:53:27.356Z,21.68
2023-02-27T23:55:59.549Z,23.18
2023-02-27T23:58:37.484Z,22.13
